| time (UTC) | temp F | wind direction | speed MPH | gust MPH | rain 1hr in | rain 24hr in | rain mn in | humidity % | barometer mb |
| 20260901141547 | 79 | 241 | 0.0 | 1.0 | 0.00 | 0.44 | 0.00 | 90 | 1016.6 |
| 20260901140041 | 78 | 261 | 0.0 | 0.0 | 0.00 | 0.44 | 0.00 | 93 | 1016.6 |
| 20260901134539 | 78 | 267 | 0.0 | 1.0 | 0.00 | 0.44 | 0.00 | 94 | 1016.6 |
| 20260901133044 | 77 | 150 | 0.0 | 1.0 | 0.00 | 0.44 | 0.00 | 95 | 1016.6 |
| 20260901131540 | 76 | 239 | 0.0 | 0.0 | 0.00 | 0.44 | 0.00 | 96 | 1016.7 |
| 20260901130033 | 76 | 253 | 0.0 | 1.0 | 0.00 | 0.44 | 0.00 | 96 | 1016.7 |
| 20260901124533 | 76 | 154 | 0.0 | 0.0 | 0.00 | 0.44 | 0.00 | 96 | 1016.7 |
| 20260901123037 | 76 | 149 | 0.0 | 0.0 | 0.00 | 0.44 | 0.00 | 96 | 1016.9 |
| 20260901121530 | 75 | 149 | 0.0 | 0.0 | 0.00 | 0.44 | 0.00 | 96 | 1016.9 |
| 20260901120026 | 75 | 149 | 0.0 | 0.0 | 0.00 | 0.44 | 0.00 | 96 | 1016.9 |
| 20260901114525 | 74 | 149 | 0.0 | 0.0 | 0.00 | 0.44 | 0.00 | 96 | 1017.0 |
| 20260901113019 | 73 | 149 | 0.0 | 0.0 | 0.00 | 0.44 | 0.00 | 96 | 1016.8 |
| 20260901111516 | 72 | 149 | 0.0 | 0.0 | 0.00 | 0.44 | 0.00 | 96 | 1016.3 |
| 20260901110015 | 72 | 149 | 0.0 | 0.0 | 0.00 | 0.44 | 0.00 | 95 | 1016.4 |
| 20260901104515 | 72 | 149 | 0.0 | 0.0 | 0.00 | 0.44 | 0.00 | 95 | 1016.4 |
| 20260901103013 | 72 | 149 | 0.0 | 0.0 | 0.00 | 0.44 | 0.00 | 95 | 1016.3 |
| 20260901101514 | 72 | 149 | 0.0 | 0.0 | 0.00 | 0.44 | 0.00 | 95 | 1016.5 |
| 20260901100014 | 73 | 149 | 0.0 | 0.0 | 0.00 | 0.44 | 0.00 | 95 | 1016.4 |
| 20260901094508 | 73 | 149 | 0.0 | 0.0 | 0.00 | 0.44 | 0.00 | 95 | 1016.3 |
| 20260901093003 | 73 | 149 | 0.0 | 0.0 | 0.00 | 0.44 | 0.00 | 95 | 1016.3 |
| 20260901091606 | 73 | 149 | 0.0 | 0.0 | 0.00 | 0.44 | 0.00 | 95 | 1016.2 |
| 20260901090101 | 73 | 149 | 0.0 | 0.0 | 0.00 | 0.44 | 0.00 | 95 | 1016.2 |
| 20260901084609 | 73 | 149 | 0.0 | 0.0 | 0.00 | 0.44 | 0.00 | 95 | 1016.3 |
| 20260901083047 | 73 | 149 | 0.0 | 0.0 | 0.00 | 0.44 | 0.00 | 95 | 1016.4 |
| 20260901081543 | 73 | 149 | 0.0 | 0.0 | 0.00 | 0.44 | 0.00 | 95 | 1016.4 |
| 20260901080050 | 73 | 149 | 0.0 | 0.0 | 0.00 | 0.44 | 0.00 | 95 | 1016.3 |
| 20260901074538 | 72 | 149 | 0.0 | 0.0 | 0.00 | 0.44 | 0.00 | 95 | 1016.4 |
| 20260901073046 | 72 | 149 | 0.0 | 0.0 | 0.00 | 0.44 | 0.00 | 95 | 1016.4 |
| 20260901071537 | 72 | 149 | 0.0 | 0.0 | 0.00 | 0.44 | 0.00 | 95 | 1016.6 |
| 20260901070033 | 73 | 149 | 0.0 | 0.0 | 0.00 | 0.44 | 0.00 | 95 | 1016.6 |
| 20260901064529 | 73 | 149 | 0.0 | 0.0 | 0.00 | 0.44 | 0.00 | 95 | 1016.7 |
| 20260901063026 | 73 | 149 | 0.0 | 0.0 | 0.00 | 0.44 | 0.00 | 95 | 1016.7 |
| 20260901061521 | 73 | 149 | 0.0 | 0.0 | 0.00 | 0.44 | 0.00 | 95 | 1017.0 |
| 20260901060033 | 73 | 149 | 0.0 | 0.0 | 0.00 | 0.44 | 0.00 | 95 | 1017.2 |
| 20260901054514 | 73 | 149 | 0.0 | 0.0 | 0.00 | 0.44 | 0.00 | 95 | 1017.2 |
| 20260901053007 | 73 | 149 | 0.0 | 0.0 | 0.00 | 0.44 | 0.00 | 95 | 1017.4 |
| 20260901051503 | 73 | 149 | 0.0 | 0.0 | 0.00 | 0.44 | 0.00 | 95 | 1017.5 |
| 20260901050059 | 73 | 149 | 0.0 | 0.0 | 0.00 | 0.44 | 0.00 | 95 | 1018.1 |
| 20260901044601 | 73 | 149 | 0.0 | 0.0 | 0.00 | 0.44 | 0.00 | 95 | 1017.6 |
| 20260901043050 | 73 | 149 | 0.0 | 0.0 | 0.00 | 0.44 | 0.00 | 95 | 1017.6 |
| 20260901041612 | 73 | 149 | 0.0 | 0.0 | 0.00 | 0.44 | 0.00 | 95 | 1017.5 |
| 20260901040059 | 73 | 149 | 0.0 | 0.0 | 0.00 | 0.44 | 0.00 | 95 | 1017.3 |
| 20260901034540 | 73 | 149 | 0.0 | 0.0 | 0.00 | 0.44 | 0.44 | 95 | 1017.3 |
| 20260901033044 | 73 | 149 | 0.0 | 0.0 | 0.00 | 0.44 | 0.44 | 95 | 1017.3 |
| 20260901031541 | 73 | 149 | 0.0 | 0.0 | 0.00 | 0.44 | 0.44 | 95 | 1017.3 |
| 20260901030039 | 73 | 149 | 0.0 | 0.0 | 0.00 | 0.44 | 0.44 | 95 | 1017.2 |
| 20260901024542 | 73 | 149 | 0.0 | 0.0 | 0.00 | 0.44 | 0.44 | 95 | 1017.3 |
| 20260901023040 | 73 | 149 | 0.0 | 0.0 | 0.00 | 0.44 | 0.44 | 95 | 1017.4 |
| 20260901021541 | 73 | 149 | 0.0 | 0.0 | 0.00 | 0.44 | 0.44 | 94 | 1017.7 |
| 20260901020040 | 73 | 149 | 0.0 | 0.0 | 0.00 | 0.44 | 0.44 | 94 | 1017.7 |
| 20260901014638 | 73 | 149 | 0.0 | 0.0 | 0.00 | 0.44 | 0.44 | 94 | 1017.7 |
| 20260901013037 | 73 | 149 | 0.0 | 0.0 | 0.00 | 0.44 | 0.44 | 94 | 1017.8 |
| 20260901011540 | 73 | 149 | 0.0 | 0.0 | 0.00 | 0.44 | 0.44 | 94 | 1017.8 |
| 20260901010051 | 73 | 149 | 0.0 | 0.0 | 0.00 | 0.44 | 0.44 | 94 | 1017.9 |
| 20260901004536 | 73 | 149 | 0.0 | 0.0 | 0.00 | 0.44 | 0.44 | 94 | 1018.0 |
| 20260901003038 | 73 | 150 | 0.0 | 0.0 | 0.00 | 0.44 | 0.44 | 94 | 1017.9 |
| 20260901001537 | 73 | 149 | 0.0 | 0.0 | 0.00 | 0.44 | 0.44 | 94 | 1017.7 |
| 20260901000034 | 73 | 149 | 0.0 | 0.0 | 0.00 | 0.44 | 0.44 | 94 | 1017.5 |
| 20260831234534 | 73 | 149 | 0.0 | 0.0 | 0.01 | 0.44 | 0.44 | 94 | 1017.7 |
| 20260831233041 | 74 | 150 | 0.0 | 0.0 | 0.01 | 0.44 | 0.44 | 94 | 1017.7 |
| 20260831231537 | 74 | 149 | 0.0 | 0.0 | 0.06 | 0.44 | 0.44 | 93 | 1017.7 |
| 20260831230032 | 74 | 149 | 0.0 | 0.0 | 0.09 | 0.44 | 0.44 | 94 | 1017.7 |
| 20260831224532 | 74 | 93 | 0.0 | 1.0 | 0.08 | 0.43 | 0.43 | 93 | 1017.9 |
| 20260831223031 | 74 | 82 | 0.0 | 1.0 | 0.08 | 0.43 | 0.43 | 93 | 1018.0 |
| 20260831221536 | 74 | 110 | 0.0 | 1.0 | 0.03 | 0.38 | 0.38 | 93 | 1018.1 |
| 20260831220029 | 74 | 78 | 0.0 | 2.0 | 0.00 | 0.35 | 0.35 | 93 | 1018.2 |
| 20260831214529 | 74 | 74 | 0.0 | 2.0 | 0.14 | 0.35 | 0.35 | 93 | 1018.4 |
| 20260831213028 | 74 | 138 | 0.0 | 3.0 | 0.25 | 0.35 | 0.35 | 93 | 1018.0 |
| 20260831211530 | 74 | 117 | 1.0 | 4.0 | 0.26 | 0.35 | 0.35 | 93 | 1017.8 |
| 20260831210027 | 74 | 124 | 0.0 | 3.0 | 0.35 | 0.35 | 0.35 | 92 | 1018.1 |
| 20260831204526 | 76 | 126 | 0.0 | 4.0 | 0.17 | 0.17 | 0.17 | 89 | 1018.1 |
| 20260831203025 | 78 | 148 | 1.0 | 2.0 | 0.10 | 0.10 | 0.10 | 88 | 1017.6 |
| 20260831201526 | 81 | 133 | 1.0 | 3.0 | 0.09 | 0.09 | 0.09 | 80 | 1017.2 |
| 20260831200024 | 86 | 279 | 0.0 | 3.0 | 0.00 | 0.00 | 0.00 | 75 | 1017.0 |
| 20260831194524 | 87 | 290 | 0.0 | 1.0 | 0.00 | 0.00 | 0.00 | 71 | 1017.0 |
| 20260831193033 | 88 | 342 | 0.0 | 1.0 | 0.00 | 0.00 | 0.00 | 65 | 1017.1 |
| 20260831191522 | 90 | 335 | 0.0 | 1.0 | 0.00 | 0.00 | 0.00 | 64 | 1017.2 |
| 20260831190020 | 91 | 232 | 0.0 | 1.0 | 0.00 | 0.00 | 0.00 | 63 | 1017.2 |
| 20260831184519 | 90 | 194 | 0.0 | 1.0 | 0.00 | 0.00 | 0.00 | 65 | 1017.3 |
| 20260831183018 | 91 | 143 | 0.0 | 1.0 | 0.00 | 0.00 | 0.00 | 66 | 1017.6 |
| 20260831181517 | 90 | 95 | 0.0 | 2.0 | 0.00 | 0.00 | 0.00 | 66 | 1017.6 |
| 20260831180020 | 89 | 84 | 0.0 | 1.0 | 0.00 | 0.00 | 0.00 | 67 | 1017.6 |
| 20260831174518 | 90 | 154 | 0.0 | 1.0 | 0.00 | 0.00 | 0.00 | 68 | 1017.7 |
| 20260831173017 | 89 | 152 | 0.0 | 2.0 | 0.00 | 0.00 | 0.00 | 68 | 1017.7 |
| 20260831171516 | 88 | 88 | 0.0 | 2.0 | 0.00 | 0.00 | 0.00 | 70 | 1017.9 |
| 20260831170023 | 89 | 332 | 0.0 | 2.0 | 0.00 | 0.00 | 0.00 | 67 | 1017.9 |
| 20260831164516 | 88 | 116 | 0.0 | 1.0 | 0.00 | 0.00 | 0.00 | 68 | 1018.1 |
| 20260831163006 | 88 | 171 | 0.0 | 1.0 | 0.00 | 0.00 | 0.00 | 74 | 1018.1 |
| 20260831161503 | 86 | 80 | 0.0 | 2.0 | 0.00 | 0.00 | 0.00 | 72 | 1018.3 |
| 20260831160100 | 85 | 74 | 0.0 | 2.0 | 0.00 | 0.00 | 0.00 | 74 | 1018.3 |
| 20260831154559 | 84 | 76 | 0.0 | 2.0 | 0.00 | 0.00 | 0.00 | 77 | 1018.2 |
| 20260831153059 | 84 | 122 | 0.0 | 2.0 | 0.00 | 0.00 | 0.00 | 78 | 1018.3 |
| 20260831151605 | 83 | 80 | 0.0 | 1.0 | 0.00 | 0.00 | 0.00 | 81 | 1018.3 |
| 20260831150051 | 82 | 78 | 1.0 | 3.0 | 0.00 | 0.00 | 0.00 | 81 | 1018.4 |
| 20260831144550 | 82 | 70 | 0.0 | 2.0 | 0.00 | 0.00 | 0.00 | 82 | 1018.4 |
| 20260831143048 | 81 | 75 | 0.0 | 2.0 | 0.00 | 0.00 | 0.00 | 84 | 1018.5 |